sensor_id;sensor_type;location;lat;lon;timestamp;P1;durP1;ratioP1;P2;durP2;ratioP2
51312;SDS011;37397;53.226;10.400;2022-07-25T04:02:01;6.28;;;3.53;;
51312;SDS011;37397;53.226;10.400;2022-07-25T04:04:28;6.88;;;3.67;;
51312;SDS011;37397;53.226;10.400;2022-07-25T04:06:54;4.93;;;3.20;;
51312;SDS011;37397;53.226;10.400;2022-07-25T04:09:21;5.43;;;3.78;;
51312;SDS011;37397;53.226;10.400;2022-07-25T04:11:47;5.15;;;3.65;;
51312;SDS011;37397;53.226;10.400;2022-07-25T04:14:15;4.95;;;3.30;;
51312;SDS011;37397;53.226;10.400;2022-07-25T04:16:41;6.15;;;3.28;;
51312;SDS011;37397;53.226;10.400;2022-07-25T04:19:09;6.47;;;3.25;;
51312;SDS011;37397;53.226;10.400;2022-07-25T04:21:35;5.18;;;3.60;;
51312;SDS011;37397;53.226;10.400;2022-07-25T04:24:02;6.10;;;3.38;;
51312;SDS011;37397;53.226;10.400;2022-07-25T04:26:29;5.65;;;3.42;;
51312;SDS011;37397;53.226;10.400;2022-07-25T04:28:55;5.53;;;3.33;;
51312;SDS011;37397;53.226;10.400;2022-07-25T04:31:24;5.13;;;3.22;;
51312;SDS011;37397;53.226;10.400;2022-07-25T04:33:51;7.97;;;3.80;;
51312;SDS011;37397;53.226;10.400;2022-07-25T04:36:17;7.53;;;3.53;;
51312;SDS011;37397;53.226;10.400;2022-07-25T04:38:44;5.60;;;3.55;;
51312;SDS011;37397;53.226;10.400;2022-07-25T04:41:10;7.90;;;3.50;;
51312;SDS011;37397;53.226;10.400;2022-07-25T04:43:37;7.78;;;3.60;;
51312;SDS011;37397;53.226;10.400;2022-07-25T04:46:03;5.18;;;3.40;;
51312;SDS011;37397;53.226;10.400;2022-07-25T04:48:30;4.35;;;3.15;;
51312;SDS011;37397;53.226;10.400;2022-07-25T04:50:57;8.75;;;3.70;;
51312;SDS011;37397;53.226;10.400;2022-07-25T04:53:23;6.47;;;3.63;;
51312;SDS011;37397;53.226;10.400;2022-07-25T04:55:49;5.10;;;3.22;;
51312;SDS011;37397;53.226;10.400;2022-07-25T04:58:16;4.93;;;3.20;;
51312;SDS011;37397;53.226;10.400;2022-07-25T05:00:42;4.50;;;3.33;;
51312;SDS011;37397;53.226;10.400;2022-07-25T05:03:09;4.60;;;3.05;;
51312;SDS011;37397;53.226;10.400;2022-07-25T05:05:36;5.18;;;3.13;;
51312;SDS011;37397;53.226;10.400;2022-07-25T05:08:03;5.65;;;3.50;;
51312;SDS011;37397;53.226;10.400;2022-07-25T05:10:29;5.18;;;3.33;;
51312;SDS011;37397;53.226;10.400;2022-07-25T05:12:56;6.50;;;3.30;;
51312;SDS011;37397;53.226;10.400;2022-07-25T05:15:23;6.05;;;3.60;;
51312;SDS011;37397;53.226;10.400;2022-07-25T05:17:50;5.22;;;3.47;;
51312;SDS011;37397;53.226;10.400;2022-07-25T05:20:18;5.30;;;3.55;;
51312;SDS011;37397;53.226;10.400;2022-07-25T05:22:44;4.85;;;3.10;;
51312;SDS011;37397;53.226;10.400;2022-07-25T05:25:11;9.70;;;3.85;;
51312;SDS011;37397;53.226;10.400;2022-07-25T05:27:38;6.97;;;3.50;;
51312;SDS011;37397;53.226;10.400;2022-07-25T05:30:05;6.25;;;3.45;;
51312;SDS011;37397;53.226;10.400;2022-07-25T05:32:33;6.05;;;3.35;;
51312;SDS011;37397;53.226;10.400;2022-07-25T05:35:00;5.60;;;3.40;;
51312;SDS011;37397;53.226;10.400;2022-07-25T05:37:26;7.75;;;3.20;;
51312;SDS011;37397;53.226;10.400;2022-07-25T05:39:53;4.97;;;3.20;;
51312;SDS011;37397;53.226;10.400;2022-07-25T05:42:19;8.00;;;3.58;;
51312;SDS011;37397;53.226;10.400;2022-07-25T05:44:46;6.13;;;3.50;;
51312;SDS011;37397;53.226;10.400;2022-07-25T05:47:12;5.80;;;3.13;;
51312;SDS011;37397;53.226;10.400;2022-07-25T05:49:39;5.53;;;3.58;;
51312;SDS011;37397;53.226;10.400;2022-07-25T05:52:05;6.72;;;3.53;;
51312;SDS011;37397;53.226;10.400;2022-07-25T05:54:38;9.95;;;3.63;;
51312;SDS011;37397;53.226;10.400;2022-07-25T05:57:05;6.68;;;3.10;;
51312;SDS011;37397;53.226;10.400;2022-07-25T05:59:31;6.82;;;3.38;;
51312;SDS011;37397;53.226;10.400;2022-07-25T06:01:59;8.80;;;3.90;;
51312;SDS011;37397;53.226;10.400;2022-07-25T06:04:26;6.57;;;3.72;;
51312;SDS011;37397;53.226;10.400;2022-07-25T06:06:53;9.82;;;3.90;;
51312;SDS011;37397;53.226;10.400;2022-07-25T06:09:20;5.32;;;3.40;;
51312;SDS011;37397;53.226;10.400;2022-07-25T06:11:47;5.50;;;3.58;;
51312;SDS011;37397;53.226;10.400;2022-07-25T06:14:25;8.65;;;3.38;;
51312;SDS011;37397;53.226;10.400;2022-07-25T06:16:52;6.75;;;3.40;;
51312;SDS011;37397;53.226;10.400;2022-07-25T06:19:18;7.53;;;3.30;;
51312;SDS011;37397;53.226;10.400;2022-07-25T06:21:45;6.47;;;3.40;;
51312;SDS011;37397;53.226;10.400;2022-07-25T06:24:11;7.07;;;3.20;;
51312;SDS011;37397;53.226;10.400;2022-07-25T06:26:38;5.38;;;3.38;;
51312;SDS011;37397;53.226;10.400;2022-07-25T06:29:05;6.38;;;3.63;;
51312;SDS011;37397;53.226;10.400;2022-07-25T06:31:32;5.15;;;3.20;;
51312;SDS011;37397;53.226;10.400;2022-07-25T06:33:58;6.05;;;3.30;;
51312;SDS011;37397;53.226;10.400;2022-07-25T06:36:25;7.45;;;4.07;;
51312;SDS011;37397;53.226;10.400;2022-07-25T06:38:58;6.47;;;3.30;;
51312;SDS011;37397;53.226;10.400;2022-07-25T06:41:24;7.57;;;3.63;;
51312;SDS011;37397;53.226;10.400;2022-07-25T06:43:51;7.57;;;3.53;;
51312;SDS011;37397;53.226;10.400;2022-07-25T06:46:18;9.23;;;3.95;;
51312;SDS011;37397;53.226;10.400;2022-07-25T06:48:45;10.02;;;3.92;;
51312;SDS011;37397;53.226;10.400;2022-07-25T06:51:12;5.97;;;4.00;;
51312;SDS011;37397;53.226;10.400;2022-07-25T06:53:38;6.63;;;3.90;;
51312;SDS011;37397;53.226;10.400;2022-07-25T06:56:05;6.53;;;3.58;;
51312;SDS011;37397;53.226;10.400;2022-07-25T06:58:31;8.15;;;3.90;;
51312;SDS011;37397;53.226;10.400;2022-07-25T07:00:58;10.13;;;4.18;;
51312;SDS011;37397;53.226;10.400;2022-07-25T07:03:26;6.68;;;4.03;;
51312;SDS011;37397;53.226;10.400;2022-07-25T07:05:53;5.45;;;3.63;;
51312;SDS011;37397;53.226;10.400;2022-07-25T07:08:20;6.15;;;3.72;;
51312;SDS011;37397;53.226;10.400;2022-07-25T07:10:46;6.75;;;3.70;;
51312;SDS011;37397;53.226;10.400;2022-07-25T07:13:13;7.90;;;3.70;;
51312;SDS011;37397;53.226;10.400;2022-07-25T07:15:49;7.03;;;4.18;;
51312;SDS011;37397;53.226;10.400;2022-07-25T07:18:17;6.55;;;3.97;;
51312;SDS011;37397;53.226;10.400;2022-07-25T07:20:45;8.40;;;3.95;;
51312;SDS011;37397;53.226;10.400;2022-07-25T07:23:12;7.05;;;4.07;;
51312;SDS011;37397;53.226;10.400;2022-07-25T07:25:42;12.18;;;4.35;;
51312;SDS011;37397;53.226;10.400;2022-07-25T07:28:09;7.15;;;4.03;;
51312;SDS011;37397;53.226;10.400;2022-07-25T07:30:35;6.55;;;4.15;;
51312;SDS011;37397;53.226;10.400;2022-07-25T07:33:22;8.77;;;4.40;;
51312;SDS011;37397;53.226;10.400;2022-07-25T07:35:48;7.28;;;4.40;;
51312;SDS011;37397;53.226;10.400;2022-07-25T07:38:15;7.05;;;4.75;;
51312;SDS011;37397;53.226;10.400;2022-07-25T07:40:43;6.20;;;4.35;;
51312;SDS011;37397;53.226;10.400;2022-07-25T07:43:09;8.15;;;5.05;;
51312;SDS011;37397;53.226;10.400;2022-07-25T07:45:36;6.80;;;4.90;;
51312;SDS011;37397;53.226;10.400;2022-07-25T07:48:02;9.43;;;5.40;;
51312;SDS011;37397;53.226;10.400;2022-07-25T07:50:29;7.43;;;4.68;;
51312;SDS011;37397;53.226;10.400;2022-07-25T07:52:56;8.57;;;4.43;;
51312;SDS011;37397;53.226;10.400;2022-07-25T07:55:23;6.18;;;4.22;;
51312;SDS011;37397;53.226;10.400;2022-07-25T07:58:09;9.55;;;4.72;;
51312;SDS011;37397;53.226;10.400;2022-07-25T08:00:37;7.57;;;5.10;;
51312;SDS011;37397;53.226;10.400;2022-07-25T08:03:06;9.93;;;4.85;;
51312;SDS011;37397;53.226;10.400;2022-07-25T08:05:39;9.13;;;4.68;;
51312;SDS011;37397;53.226;10.400;2022-07-25T08:08:08;7.07;;;4.80;;
51312;SDS011;37397;53.226;10.400;2022-07-25T08:10:38;7.53;;;5.00;;
51312;SDS011;37397;53.226;10.400;2022-07-25T08:13:17;10.38;;;5.10;;
51312;SDS011;37397;53.226;10.400;2022-07-25T08:15:47;6.30;;;4.97;;
51312;SDS011;37397;53.226;10.400;2022-07-25T08:18:16;8.10;;;5.50;;
51312;SDS011;37397;53.226;10.400;2022-07-25T08:20:46;7.50;;;5.07;;
51312;SDS011;37397;53.226;10.400;2022-07-25T08:23:14;8.05;;;5.55;;
51312;SDS011;37397;53.226;10.400;2022-07-25T08:25:41;9.05;;;5.75;;
51312;SDS011;37397;53.226;10.400;2022-07-25T08:28:08;7.38;;;5.22;;
51312;SDS011;37397;53.226;10.400;2022-07-25T08:30:35;8.30;;;5.13;;
51312;SDS011;37397;53.226;10.400;2022-07-25T08:33:03;8.07;;;5.78;;
51312;SDS011;37397;53.226;10.400;2022-07-25T08:35:32;9.07;;;5.80;;
51312;SDS011;37397;53.226;10.400;2022-07-25T08:37:59;9.55;;;5.60;;
51312;SDS011;37397;53.226;10.400;2022-07-25T08:40:28;10.15;;;6.22;;
51312;SDS011;37397;53.226;10.400;2022-07-25T08:42:56;9.15;;;6.20;;
51312;SDS011;37397;53.226;10.400;2022-07-25T08:45:24;10.57;;;6.47;;
51312;SDS011;37397;53.226;10.400;2022-07-25T08:47:52;10.02;;;6.03;;
51312;SDS011;37397;53.226;10.400;2022-07-25T08:50:24;7.55;;;5.97;;
51312;SDS011;37397;53.226;10.400;2022-07-25T08:52:53;8.13;;;6.30;;
51312;SDS011;37397;53.226;10.400;2022-07-25T08:55:40;10.02;;;7.13;;
51312;SDS011;37397;53.226;10.400;2022-07-25T08:58:09;8.25;;;6.60;;
51312;SDS011;37397;53.226;10.400;2022-07-25T09:00:37;11.85;;;6.70;;
51312;SDS011;37397;53.226;10.400;2022-07-25T09:03:04;9.27;;;6.38;;
51312;SDS011;37397;53.226;10.400;2022-07-25T09:05:34;9.70;;;6.35;;
51312;SDS011;37397;53.226;10.400;2022-07-25T09:08:06;12.00;;;6.60;;
51312;SDS011;37397;53.226;10.400;2022-07-25T09:10:35;8.02;;;6.18;;
51312;SDS011;37397;53.226;10.400;2022-07-25T09:13:06;10.38;;;7.03;;
51312;SDS011;37397;53.226;10.400;2022-07-25T09:15:46;8.82;;;5.85;;
51312;SDS011;37397;53.226;10.400;2022-07-25T09:18:16;9.35;;;6.65;;
51312;SDS011;37397;53.226;10.400;2022-07-25T09:20:50;10.43;;;6.95;;
51312;SDS011;37397;53.226;10.400;2022-07-25T09:26:02;9.60;;;6.40;;
51312;SDS011;37397;53.226;10.400;2022-07-25T09:31:13;8.40;;;6.10;;
51312;SDS011;37397;53.226;10.400;2022-07-25T09:36:11;8.85;;;6.40;;
51312;SDS011;37397;53.226;10.400;2022-07-25T09:38:37;10.18;;;7.32;;
51312;SDS011;37397;53.226;10.400;2022-07-25T09:41:04;8.15;;;6.40;;
51312;SDS011;37397;53.226;10.400;2022-07-25T09:43:35;9.48;;;6.25;;
51312;SDS011;37397;53.226;10.400;2022-07-25T09:46:05;9.70;;;7.03;;
51312;SDS011;37397;53.226;10.400;2022-07-25T09:48:33;10.00;;;6.65;;
51312;SDS011;37397;53.226;10.400;2022-07-25T09:51:00;8.27;;;6.60;;
51312;SDS011;37397;53.226;10.400;2022-07-25T09:53:27;8.32;;;6.20;;
51312;SDS011;37397;53.226;10.400;2022-07-25T09:55:54;7.82;;;5.88;;
51312;SDS011;37397;53.226;10.400;2022-07-25T09:58:26;10.30;;;6.15;;
51312;SDS011;37397;53.226;10.400;2022-07-25T10:00:55;8.77;;;5.88;;
51312;SDS011;37397;53.226;10.400;2022-07-25T10:03:28;7.78;;;5.90;;
51312;SDS011;37397;53.226;10.400;2022-07-25T10:06:23;9.75;;;6.65;;
51312;SDS011;37397;53.226;10.400;2022-07-25T10:09:01;9.40;;;6.10;;
51312;SDS011;37397;53.226;10.400;2022-07-25T10:11:28;10.05;;;6.13;;
51312;SDS011;37397;53.226;10.400;2022-07-25T10:14:07;10.30;;;6.18;;
51312;SDS011;37397;53.226;10.400;2022-07-25T10:16:43;9.30;;;6.45;;
51312;SDS011;37397;53.226;10.400;2022-07-25T10:19:11;8.27;;;6.38;;
51312;SDS011;37397;53.226;10.400;2022-07-25T10:21:38;9.75;;;6.05;;
51312;SDS011;37397;53.226;10.400;2022-07-25T10:24:07;9.07;;;6.25;;
51312;SDS011;37397;53.226;10.400;2022-07-25T10:26:36;8.88;;;6.25;;
51312;SDS011;37397;53.226;10.400;2022-07-25T10:29:08;8.52;;;6.15;;
51312;SDS011;37397;53.226;10.400;2022-07-25T10:31:40;10.32;;;6.10;;
51312;SDS011;37397;53.226;10.400;2022-07-25T10:34:26;11.57;;;6.55;;
51312;SDS011;37397;53.226;10.400;2022-07-25T10:36:56;8.80;;;6.05;;
51312;SDS011;37397;53.226;10.400;2022-07-25T10:39:37;7.97;;;5.97;;
51312;SDS011;37397;53.226;10.400;2022-07-25T10:42:05;10.25;;;6.40;;
51312;SDS011;37397;53.226;10.400;2022-07-25T10:44:44;9.27;;;6.25;;
51312;SDS011;37397;53.226;10.400;2022-07-25T10:47:15;9.10;;;5.55;;
51312;SDS011;37397;53.226;10.400;2022-07-25T10:49:43;9.05;;;5.43;;
51312;SDS011;37397;53.226;10.400;2022-07-25T10:52:39;8.65;;;5.47;;
51312;SDS011;37397;53.226;10.400;2022-07-25T10:57:34;8.43;;;5.47;;
51312;SDS011;37397;53.226;10.400;2022-07-25T11:00:04;8.27;;;5.55;;
51312;SDS011;37397;53.226;10.400;2022-07-25T11:02:32;8.98;;;5.72;;
51312;SDS011;37397;53.226;10.400;2022-07-25T11:05:00;7.97;;;5.75;;
51312;SDS011;37397;53.226;10.400;2022-07-25T11:07:28;7.60;;;5.68;;
51312;SDS011;37397;53.226;10.400;2022-07-25T11:10:03;8.07;;;5.90;;
51312;SDS011;37397;53.226;10.400;2022-07-25T11:12:30;9.55;;;5.50;;
51312;SDS011;37397;53.226;10.400;2022-07-25T11:15:01;9.25;;;5.78;;
51312;SDS011;37397;53.226;10.400;2022-07-25T11:17:30;7.22;;;5.90;;
51312;SDS011;37397;53.226;10.400;2022-07-25T11:19:59;7.72;;;5.53;;
51312;SDS011;37397;53.226;10.400;2022-07-25T11:22:26;8.00;;;5.63;;
51312;SDS011;37397;53.226;10.400;2022-07-25T11:24:53;8.07;;;5.78;;
51312;SDS011;37397;53.226;10.400;2022-07-25T11:27:23;7.78;;;5.60;;
51312;SDS011;37397;53.226;10.400;2022-07-25T11:30:07;9.32;;;6.07;;
51312;SDS011;37397;53.226;10.400;2022-07-25T11:32:39;7.97;;;5.97;;
51312;SDS011;37397;53.226;10.400;2022-07-25T11:35:09;8.32;;;6.38;;
51312;SDS011;37397;53.226;10.400;2022-07-25T11:37:37;8.48;;;6.22;;
51312;SDS011;37397;53.226;10.400;2022-07-25T11:40:06;7.70;;;5.65;;
51312;SDS011;37397;53.226;10.400;2022-07-25T11:42:40;8.80;;;6.07;;
51312;SDS011;37397;53.226;10.400;2022-07-25T11:47:45;8.45;;;6.00;;
51312;SDS011;37397;53.226;10.400;2022-07-25T11:50:14;8.27;;;5.82;;
51312;SDS011;37397;53.226;10.400;2022-07-25T11:52:41;7.15;;;5.57;;
51312;SDS011;37397;53.226;10.400;2022-07-25T11:55:09;7.78;;;6.00;;
51312;SDS011;37397;53.226;10.400;2022-07-25T11:57:44;8.13;;;6.25;;
51312;SDS011;37397;53.226;10.400;2022-07-25T12:00:19;8.45;;;5.90;;
51312;SDS011;37397;53.226;10.400;2022-07-25T12:02:47;8.13;;;5.65;;
51312;SDS011;37397;53.226;10.400;2022-07-25T12:05:19;10.02;;;5.82;;
51312;SDS011;37397;53.226;10.400;2022-07-25T12:07:50;8.63;;;5.72;;
51312;SDS011;37397;53.226;10.400;2022-07-25T12:10:23;8.55;;;6.40;;
51312;SDS011;37397;53.226;10.400;2022-07-25T12:12:57;10.32;;;6.20;;
51312;SDS011;37397;53.226;10.400;2022-07-25T12:15:27;8.70;;;6.05;;
51312;SDS011;37397;53.226;10.400;2022-07-25T12:20:29;7.85;;;5.90;;
51312;SDS011;37397;53.226;10.400;2022-07-25T12:22:58;8.30;;;5.93;;
51312;SDS011;37397;53.226;10.400;2022-07-25T12:25:27;7.80;;;6.20;;
51312;SDS011;37397;53.226;10.400;2022-07-25T12:27:57;8.18;;;6.35;;
51312;SDS011;37397;53.226;10.400;2022-07-25T12:30:25;7.47;;;5.97;;
51312;SDS011;37397;53.226;10.400;2022-07-25T12:32:54;6.90;;;5.40;;
51312;SDS011;37397;53.226;10.400;2022-07-25T12:35:21;8.15;;;6.10;;
51312;SDS011;37397;53.226;10.400;2022-07-25T12:37:48;8.65;;;6.15;;
51312;SDS011;37397;53.226;10.400;2022-07-25T12:40:16;7.72;;;6.05;;
51312;SDS011;37397;53.226;10.400;2022-07-25T12:42:43;9.65;;;5.80;;
51312;SDS011;37397;53.226;10.400;2022-07-25T12:45:11;7.57;;;5.78;;
51312;SDS011;37397;53.226;10.400;2022-07-25T12:47:38;8.93;;;5.90;;
51312;SDS011;37397;53.226;10.400;2022-07-25T12:50:06;7.88;;;5.78;;
51312;SDS011;37397;53.226;10.400;2022-07-25T12:52:33;7.18;;;5.85;;
51312;SDS011;37397;53.226;10.400;2022-07-25T12:55:00;10.00;;;5.88;;
51312;SDS011;37397;53.226;10.400;2022-07-25T12:57:26;7.65;;;5.80;;
51312;SDS011;37397;53.226;10.400;2022-07-25T12:59:53;9.18;;;6.13;;
51312;SDS011;37397;53.226;10.400;2022-07-25T13:02:19;7.85;;;5.55;;
51312;SDS011;37397;53.226;10.400;2022-07-25T13:04:46;9.43;;;5.68;;
51312;SDS011;37397;53.226;10.400;2022-07-25T13:07:14;7.85;;;6.28;;
51312;SDS011;37397;53.226;10.400;2022-07-25T13:09:41;7.80;;;6.00;;
51312;SDS011;37397;53.226;10.400;2022-07-25T13:12:08;8.45;;;5.70;;
51312;SDS011;37397;53.226;10.400;2022-07-25T13:14:38;9.93;;;5.88;;
51312;SDS011;37397;53.226;10.400;2022-07-25T13:17:05;10.05;;;5.82;;
51312;SDS011;37397;53.226;10.400;2022-07-25T13:19:31;8.07;;;6.20;;
51312;SDS011;37397;53.226;10.400;2022-07-25T13:21:58;9.65;;;6.10;;
51312;SDS011;37397;53.226;10.400;2022-07-25T13:24:25;9.70;;;6.43;;
51312;SDS011;37397;53.226;10.400;2022-07-25T13:26:51;8.45;;;6.57;;
51312;SDS011;37397;53.226;10.400;2022-07-25T13:29:18;10.10;;;7.25;;
51312;SDS011;37397;53.226;10.400;2022-07-25T13:31:45;9.60;;;6.82;;
51312;SDS011;37397;53.226;10.400;2022-07-25T13:34:12;7.75;;;6.13;;
51312;SDS011;37397;53.226;10.400;2022-07-25T13:36:39;8.23;;;6.28;;
51312;SDS011;37397;53.226;10.400;2022-07-25T13:39:05;8.68;;;6.30;;
51312;SDS011;37397;53.226;10.400;2022-07-25T13:41:33;8.45;;;5.88;;
51312;SDS011;37397;53.226;10.400;2022-07-25T13:44:00;10.23;;;6.63;;
51312;SDS011;37397;53.226;10.400;2022-07-25T13:46:26;8.40;;;6.50;;
51312;SDS011;37397;53.226;10.400;2022-07-25T13:48:53;7.82;;;6.07;;
51312;SDS011;37397;53.226;10.400;2022-07-25T13:51:20;10.60;;;6.53;;
51312;SDS011;37397;53.226;10.400;2022-07-25T13:53:47;9.73;;;6.28;;
51312;SDS011;37397;53.226;10.400;2022-07-25T13:56:13;8.48;;;6.53;;
51312;SDS011;37397;53.226;10.400;2022-07-25T13:58:40;10.05;;;6.75;;
51312;SDS011;37397;53.226;10.400;2022-07-25T14:01:07;8.23;;;6.32;;
51312;SDS011;37397;53.226;10.400;2022-07-25T14:03:34;8.43;;;6.65;;
51312;SDS011;37397;53.226;10.400;2022-07-25T14:06:02;8.57;;;6.60;;
51312;SDS011;37397;53.226;10.400;2022-07-25T14:08:30;9.18;;;6.72;;
51312;SDS011;37397;53.226;10.400;2022-07-25T14:10:56;9.35;;;6.90;;
51312;SDS011;37397;53.226;10.400;2022-07-25T14:13:23;8.63;;;6.47;;
51312;SDS011;37397;53.226;10.400;2022-07-25T14:15:50;10.20;;;6.80;;
51312;SDS011;37397;53.226;10.400;2022-07-25T14:18:16;8.38;;;6.30;;
51312;SDS011;37397;53.226;10.400;2022-07-25T14:20:43;8.30;;;6.47;;
51312;SDS011;37397;53.226;10.400;2022-07-25T14:23:09;7.78;;;6.20;;
51312;SDS011;37397;53.226;10.400;2022-07-25T14:25:36;10.07;;;6.82;;
51312;SDS011;37397;53.226;10.400;2022-07-25T14:28:03;7.43;;;6.25;;
51312;SDS011;37397;53.226;10.400;2022-07-25T14:30:30;8.50;;;6.63;;
51312;SDS011;37397;53.226;10.400;2022-07-25T14:32:56;10.25;;;6.95;;
51312;SDS011;37397;53.226;10.400;2022-07-25T14:35:23;13.88;;;6.97;;
51312;SDS011;37397;53.226;10.400;2022-07-25T14:40:23;10.25;;;6.32;;
51312;SDS011;37397;53.226;10.400;2022-07-25T14:42:49;10.20;;;7.20;;
51312;SDS011;37397;53.226;10.400;2022-07-25T14:45:16;8.38;;;6.95;;
51312;SDS011;37397;53.226;10.400;2022-07-25T14:47:43;8.25;;;6.57;;
51312;SDS011;37397;53.226;10.400;2022-07-25T14:50:10;10.55;;;6.95;;
51312;SDS011;37397;53.226;10.400;2022-07-25T14:52:37;8.57;;;6.60;;
51312;SDS011;37397;53.226;10.400;2022-07-25T14:55:03;10.25;;;6.22;;
51312;SDS011;37397;53.226;10.400;2022-07-25T14:57:30;9.05;;;6.88;;
51312;SDS011;37397;53.226;10.400;2022-07-25T14:59:57;9.00;;;6.40;;
51312;SDS011;37397;53.226;10.400;2022-07-25T15:02:27;7.68;;;6.55;;
51312;SDS011;37397;53.226;10.400;2022-07-25T15:04:53;9.35;;;7.32;;
51312;SDS011;37397;53.226;10.400;2022-07-25T15:07:20;10.98;;;6.35;;
51312;SDS011;37397;53.226;10.400;2022-07-25T15:09:46;8.43;;;6.13;;
51312;SDS011;37397;53.226;10.400;2022-07-25T15:12:13;10.70;;;6.25;;
51312;SDS011;37397;53.226;10.400;2022-07-25T15:14:42;9.00;;;7.07;;
51312;SDS011;37397;53.226;10.400;2022-07-25T15:17:09;7.82;;;6.40;;
51312;SDS011;37397;53.226;10.400;2022-07-25T15:19:35;8.05;;;6.57;;
51312;SDS011;37397;53.226;10.400;2022-07-25T15:22:02;8.80;;;6.43;;
51312;SDS011;37397;53.226;10.400;2022-07-25T15:24:28;7.93;;;6.22;;
51312;SDS011;37397;53.226;10.400;2022-07-25T15:27:09;9.07;;;6.00;;
51312;SDS011;37397;53.226;10.400;2022-07-25T15:29:36;9.02;;;6.53;;
51312;SDS011;37397;53.226;10.400;2022-07-25T15:32:02;14.52;;;6.70;;
51312;SDS011;37397;53.226;10.400;2022-07-25T15:34:31;8.25;;;6.30;;
51312;SDS011;37397;53.226;10.400;2022-07-25T15:36:58;10.05;;;6.57;;
51312;SDS011;37397;53.226;10.400;2022-07-25T15:39:25;10.52;;;6.78;;
51312;SDS011;37397;53.226;10.400;2022-07-25T15:41:52;11.32;;;7.15;;
51312;SDS011;37397;53.226;10.400;2022-07-25T15:44:19;15.95;;;8.43;;
51312;SDS011;37397;53.226;10.400;2022-07-25T15:46:45;21.67;;;8.70;;
51312;SDS011;37397;53.226;10.400;2022-07-25T15:49:13;17.50;;;8.68;;
51312;SDS011;37397;53.226;10.400;2022-07-25T15:51:40;16.75;;;10.13;;
51312;SDS011;37397;53.226;10.400;2022-07-25T15:54:07;18.38;;;11.70;;
51312;SDS011;37397;53.226;10.400;2022-07-25T15:56:33;16.38;;;10.25;;
51312;SDS011;37397;53.226;10.400;2022-07-25T15:59:00;14.80;;;9.93;;
51312;SDS011;37397;53.226;10.400;2022-07-25T16:01:27;12.15;;;9.52;;
51312;SDS011;37397;53.226;10.400;2022-07-25T16:03:53;14.57;;;8.18;;
51312;SDS011;37397;53.226;10.400;2022-07-25T16:06:25;11.43;;;8.05;;
51312;SDS011;37397;53.226;10.400;2022-07-25T16:08:52;10.55;;;7.95;;
51312;SDS011;37397;53.226;10.400;2022-07-25T16:11:24;12.60;;;6.70;;
51312;SDS011;37397;53.226;10.400;2022-07-25T16:13:51;9.65;;;6.97;;
51312;SDS011;37397;53.226;10.400;2022-07-25T16:16:19;11.15;;;6.78;;
51312;SDS011;37397;53.226;10.400;2022-07-25T16:18:48;10.85;;;7.20;;
51312;SDS011;37397;53.226;10.400;2022-07-25T16:21:14;12.13;;;7.20;;
51312;SDS011;37397;53.226;10.400;2022-07-25T16:23:41;10.45;;;6.57;;
51312;SDS011;37397;53.226;10.400;2022-07-25T16:26:11;12.60;;;7.25;;
51312;SDS011;37397;53.226;10.400;2022-07-25T16:28:38;15.77;;;7.25;;
51312;SDS011;37397;53.226;10.400;2022-07-25T16:31:05;12.73;;;6.75;;
51312;SDS011;37397;53.226;10.400;2022-07-25T16:33:32;11.95;;;6.95;;
51312;SDS011;37397;53.226;10.400;2022-07-25T16:35:58;10.18;;;6.45;;
51312;SDS011;37397;53.226;10.400;2022-07-25T16:38:25;12.00;;;6.70;;
51312;SDS011;37397;53.226;10.400;2022-07-25T16:40:52;12.57;;;7.10;;
51312;SDS011;37397;53.226;10.400;2022-07-25T16:43:19;12.75;;;6.60;;
51312;SDS011;37397;53.226;10.400;2022-07-25T16:45:46;9.75;;;6.57;;
51312;SDS011;37397;53.226;10.400;2022-07-25T16:48:12;11.68;;;6.60;;
51312;SDS011;37397;53.226;10.400;2022-07-25T16:50:39;11.02;;;6.35;;
51312;SDS011;37397;53.226;10.400;2022-07-25T16:53:05;9.75;;;6.53;;
51312;SDS011;37397;53.226;10.400;2022-07-25T16:55:32;10.13;;;6.80;;
51312;SDS011;37397;53.226;10.400;2022-07-25T16:57:59;10.93;;;6.45;;
51312;SDS011;37397;53.226;10.400;2022-07-25T17:00:25;13.25;;;6.22;;
51312;SDS011;37397;53.226;10.400;2022-07-25T17:02:52;9.05;;;6.25;;
51312;SDS011;37397;53.226;10.400;2022-07-25T17:05:18;9.38;;;5.53;;
51312;SDS011;37397;53.226;10.400;2022-07-25T17:07:45;10.48;;;5.90;;
51312;SDS011;37397;53.226;10.400;2022-07-25T17:10:12;8.65;;;6.10;;
51312;SDS011;37397;53.226;10.400;2022-07-25T17:12:38;9.77;;;5.70;;
51312;SDS011;37397;53.226;10.400;2022-07-25T17:15:05;8.82;;;5.65;;
51312;SDS011;37397;53.226;10.400;2022-07-25T17:17:32;8.68;;;6.15;;
51312;SDS011;37397;53.226;10.400;2022-07-25T17:19:59;9.80;;;6.20;;
51312;SDS011;37397;53.226;10.400;2022-07-25T17:22:25;10.90;;;5.85;;
51312;SDS011;37397;53.226;10.400;2022-07-25T17:24:52;8.40;;;5.68;;
51312;SDS011;37397;53.226;10.400;2022-07-25T17:27:18;9.35;;;5.82;;
51312;SDS011;37397;53.226;10.400;2022-07-25T17:29:45;10.13;;;6.30;;
51312;SDS011;37397;53.226;10.400;2022-07-25T17:32:11;9.30;;;6.40;;
51312;SDS011;37397;53.226;10.400;2022-07-25T17:34:38;8.70;;;5.57;;
51312;SDS011;37397;53.226;10.400;2022-07-25T17:37:05;11.38;;;6.20;;
51312;SDS011;37397;53.226;10.400;2022-07-25T17:39:33;8.95;;;5.95;;
51312;SDS011;37397;53.226;10.400;2022-07-25T17:42:00;11.88;;;6.10;;
51312;SDS011;37397;53.226;10.400;2022-07-25T17:44:27;8.30;;;5.75;;
51312;SDS011;37397;53.226;10.400;2022-07-25T17:46:53;11.88;;;6.53;;
51312;SDS011;37397;53.226;10.400;2022-07-25T17:49:20;11.27;;;6.45;;
51312;SDS011;37397;53.226;10.400;2022-07-25T17:51:47;10.07;;;5.75;;
51312;SDS011;37397;53.226;10.400;2022-07-25T17:54:13;10.93;;;5.95;;
51312;SDS011;37397;53.226;10.400;2022-07-25T17:56:40;10.88;;;5.30;;
51312;SDS011;37397;53.226;10.400;2022-07-25T17:59:07;10.38;;;5.55;;
51312;SDS011;37397;53.226;10.400;2022-07-25T18:01:34;10.57;;;5.57;;
51312;SDS011;37397;53.226;10.400;2022-07-25T18:04:00;11.30;;;6.22;;
51312;SDS011;37397;53.226;10.400;2022-07-25T18:06:27;12.77;;;5.60;;
51312;SDS011;37397;53.226;10.400;2022-07-25T18:08:55;12.27;;;6.10;;
51312;SDS011;37397;53.226;10.400;2022-07-25T18:11:22;10.75;;;5.78;;
51312;SDS011;37397;53.226;10.400;2022-07-25T18:13:49;9.68;;;5.55;;
51312;SDS011;37397;53.226;10.400;2022-07-25T18:16:15;11.73;;;5.65;;
51312;SDS011;37397;53.226;10.400;2022-07-25T18:18:42;9.55;;;5.22;;
51312;SDS011;37397;53.226;10.400;2022-07-25T18:21:09;12.07;;;5.88;;
51312;SDS011;37397;53.226;10.400;2022-07-25T18:23:35;10.82;;;5.80;;
51312;SDS011;37397;53.226;10.400;2022-07-25T18:26:02;8.98;;;4.72;;
51312;SDS011;37397;53.226;10.400;2022-07-25T18:28:29;13.43;;;5.00;;
51312;SDS011;37397;53.226;10.400;2022-07-25T18:30:56;10.13;;;5.22;;
51312;SDS011;37397;53.226;10.400;2022-07-25T18:33:22;9.38;;;5.15;;
51312;SDS011;37397;53.226;10.400;2022-07-25T18:35:49;11.10;;;5.07;;
51312;SDS011;37397;53.226;10.400;2022-07-25T18:38:16;11.23;;;5.90;;
51312;SDS011;37397;53.226;10.400;2022-07-25T18:40:43;11.73;;;4.30;;
51312;SDS011;37397;53.226;10.400;2022-07-25T18:43:09;12.30;;;5.63;;
51312;SDS011;37397;53.226;10.400;2022-07-25T18:45:36;11.23;;;4.90;;
51312;SDS011;37397;53.226;10.400;2022-07-25T18:48:04;9.60;;;4.63;;
51312;SDS011;37397;53.226;10.400;2022-07-25T18:50:31;10.43;;;4.97;;
51312;SDS011;37397;53.226;10.400;2022-07-25T18:52:57;10.48;;;4.57;;
51312;SDS011;37397;53.226;10.400;2022-07-25T18:55:24;8.95;;;4.30;;